createdAt,value
2019-05-25T00:00:11.982Z,99.90
2019-05-25T00:00:57.721Z,99.90
2019-05-25T00:01:43.376Z,99.90
2019-05-25T00:02:29.571Z,99.90
2019-05-25T00:03:15.572Z,99.90
2019-05-25T00:04:02.057Z,99.90
2019-05-25T00:04:48.511Z,99.90
2019-05-25T00:05:34.894Z,99.90
2019-05-25T00:06:21.439Z,99.90
2019-05-25T00:07:08.007Z,99.90
2019-05-25T00:07:54.177Z,99.90
2019-05-25T00:08:40.805Z,99.90
2019-05-25T00:09:27.107Z,99.90
2019-05-25T00:10:13.942Z,99.90
2019-05-25T00:10:59.926Z,99.90
2019-05-25T00:11:46.187Z,99.90
2019-05-25T00:12:32.487Z,99.90
2019-05-25T00:13:18.762Z,99.90
2019-05-25T00:14:05.436Z,99.90
2019-05-25T00:14:51.882Z,99.90
2019-05-25T00:15:37.984Z,99.90
2019-05-25T00:16:24.708Z,99.90
2019-05-25T00:17:11.218Z,99.90
2019-05-25T00:17:57.850Z,99.90
2019-05-25T00:18:45.333Z,99.90
2019-05-25T00:19:32.707Z,99.90
2019-05-25T00:20:19.058Z,99.90
2019-05-25T00:21:05.374Z,99.90
2019-05-25T00:21:51.710Z,99.90
2019-05-25T00:22:37.610Z,99.90
2019-05-25T00:23:23.545Z,99.90
2019-05-25T00:24:12.602Z,99.90
2019-05-25T00:24:57.582Z,99.90
2019-05-25T00:25:43.235Z,99.90
2019-05-25T00:26:28.936Z,99.90
2019-05-25T00:27:14.662Z,99.90
2019-05-25T00:28:02.417Z,99.90
2019-05-25T00:28:48.699Z,99.90
2019-05-25T00:29:34.859Z,99.90
2019-05-25T00:30:20.891Z,99.90
2019-05-25T00:31:07.112Z,99.90
2019-05-25T00:31:53.444Z,99.90
2019-05-25T00:32:39.858Z,99.90
2019-05-25T00:33:25.892Z,99.90
2019-05-25T00:34:12.014Z,99.90
2019-05-25T00:34:58.414Z,99.90
2019-05-25T00:35:44.848Z,99.90
2019-05-25T00:36:30.947Z,99.90
2019-05-25T00:37:17.134Z,99.90
2019-05-25T00:38:03.565Z,99.90
2019-05-25T00:38:49.770Z,99.90
2019-05-25T00:39:36.437Z,99.90
2019-05-25T00:40:23.073Z,99.90
2019-05-25T00:41:09.710Z,99.90
2019-05-25T00:41:56.043Z,99.90
2019-05-25T00:42:42.090Z,99.90
2019-05-25T00:43:27.981Z,99.90
2019-05-25T00:44:14.512Z,99.90
2019-05-25T00:45:00.859Z,99.90
2019-05-25T00:45:47.406Z,99.90
2019-05-25T00:46:33.737Z,99.90
2019-05-25T00:47:19.746Z,99.90
2019-05-25T00:48:05.990Z,99.90
2019-05-25T00:48:51.875Z,99.90
2019-05-25T00:49:37.839Z,99.90
2019-05-25T00:50:27.446Z,99.90
2019-05-25T00:51:13.610Z,99.90
2019-05-25T00:51:59.480Z,99.90
2019-05-25T00:52:45.520Z,99.90
2019-05-25T00:53:32.025Z,99.90
2019-05-25T00:54:27.390Z,99.90
2019-05-25T00:55:07.286Z,99.90
2019-05-25T00:55:52.931Z,99.90
2019-05-25T00:56:38.862Z,99.90
2019-05-25T00:57:25.253Z,99.90
2019-05-25T00:58:11.123Z,99.90
2019-05-25T00:58:57.049Z,99.90
2019-05-25T00:59:43.171Z,99.90
2019-05-25T01:00:29.648Z,99.90
2019-05-25T01:01:15.903Z,99.90
2019-05-25T01:02:02.574Z,99.90
2019-05-25T01:02:48.462Z,99.90
2019-05-25T01:03:36.227Z,99.90
2019-05-25T01:04:22.619Z,99.90
2019-05-25T01:05:09.596Z,99.90
2019-05-25T01:05:55.928Z,99.90
2019-05-25T01:06:42.411Z,99.90
2019-05-25T01:07:28.687Z,99.90
2019-05-25T01:08:15.173Z,99.90
2019-05-25T01:09:01.710Z,99.90
2019-05-25T01:09:50.838Z,99.90
2019-05-25T01:10:36.976Z,99.90
2019-05-25T01:11:23.484Z,99.90
2019-05-25T01:12:09.612Z,99.90
2019-05-25T01:12:55.728Z,99.90
2019-05-25T01:13:41.736Z,99.90
2019-05-25T01:14:27.656Z,99.90
2019-05-25T01:15:13.990Z,99.90
2019-05-25T01:16:00.072Z,99.90
2019-05-25T01:16:46.284Z,99.90
2019-05-25T01:17:32.401Z,99.90
2019-05-25T01:18:18.468Z,99.90
2019-05-25T01:19:04.722Z,99.90
2019-05-25T01:19:50.631Z,99.90
2019-05-25T01:20:38.796Z,99.90
2019-05-25T01:21:25.472Z,99.90
2019-05-25T01:22:11.542Z,99.90
2019-05-25T01:22:57.582Z,99.90
2019-05-25T01:23:43.497Z,99.90
2019-05-25T01:24:43.375Z,99.90
2019-05-25T01:25:17.825Z,99.90
2019-05-25T01:26:04.211Z,99.90
2019-05-25T01:26:50.324Z,99.90
2019-05-25T01:27:36.193Z,99.90
2019-05-25T01:28:21.952Z,99.90
2019-05-25T01:29:07.731Z,99.90
2019-05-25T01:29:53.770Z,99.90
2019-05-25T01:30:39.982Z,99.90
2019-05-25T01:31:25.855Z,99.90
2019-05-25T01:32:11.948Z,99.90
2019-05-25T01:32:57.899Z,99.90
2019-05-25T01:33:44.063Z,99.90
2019-05-25T01:34:30.203Z,99.90
2019-05-25T01:35:16.856Z,99.90
2019-05-25T01:36:03.123Z,99.90
2019-05-25T01:36:49.236Z,99.90
2019-05-25T01:37:35.412Z,99.90
2019-05-25T01:38:21.938Z,99.90
2019-05-25T01:39:08.327Z,99.90
2019-05-25T01:39:54.727Z,99.90
2019-05-25T01:40:41.243Z,99.90
2019-05-25T01:41:27.733Z,99.90
2019-05-25T01:42:14.233Z,99.90
2019-05-25T01:43:00.239Z,99.90
2019-05-25T01:43:46.605Z,99.90
2019-05-25T01:44:32.559Z,99.90
2019-05-25T01:45:18.628Z,99.90
2019-05-25T01:46:04.479Z,99.90
2019-05-25T01:46:50.219Z,99.90
2019-05-25T01:47:36.509Z,99.90
2019-05-25T01:48:22.351Z,99.90
2019-05-25T01:49:08.034Z,99.90
2019-05-25T01:49:53.862Z,99.90
2019-05-25T01:50:39.611Z,99.90
2019-05-25T01:51:26.019Z,99.90
2019-05-25T01:52:11.907Z,99.90
2019-05-25T01:52:57.544Z,99.90
2019-05-25T01:53:43.243Z,99.90
2019-05-25T01:54:29.420Z,99.90
2019-05-25T01:55:15.108Z,99.90
2019-05-25T01:56:01.108Z,99.90
2019-05-25T01:56:46.749Z,99.90
2019-05-25T01:57:32.455Z,99.90
2019-05-25T01:58:18.192Z,99.90
2019-05-25T01:59:03.943Z,99.90
2019-05-25T01:59:49.729Z,99.90
2019-05-25T02:00:35.490Z,99.90
2019-05-25T02:01:21.853Z,99.90
2019-05-25T02:02:08.134Z,99.90
2019-05-25T02:02:54.000Z,99.90
2019-05-25T02:03:40.112Z,99.90
2019-05-25T02:04:26.266Z,99.90
2019-05-25T02:05:12.197Z,99.90
2019-05-25T02:05:57.999Z,99.90
2019-05-25T02:06:44.219Z,99.90
2019-05-25T02:07:30.467Z,99.90
2019-05-25T02:08:16.511Z,99.90
2019-05-25T02:09:03.625Z,99.90
2019-05-25T02:09:49.626Z,99.90
2019-05-25T02:10:35.300Z,99.90
2019-05-25T02:11:21.001Z,99.90
2019-05-25T02:12:06.637Z,99.90
2019-05-25T02:12:52.311Z,99.90
2019-05-25T02:13:38.171Z,99.90
2019-05-25T02:14:24.337Z,99.90
2019-05-25T02:15:10.615Z,99.90
2019-05-25T02:15:56.697Z,99.90
2019-05-25T02:16:42.987Z,99.90
2019-05-25T02:17:29.340Z,99.90
2019-05-25T02:18:15.020Z,99.90
2019-05-25T02:19:00.740Z,99.90
2019-05-25T02:19:46.445Z,99.90
2019-05-25T02:20:32.266Z,99.90
2019-05-25T02:21:19.541Z,99.90
2019-05-25T02:22:06.073Z,99.90
2019-05-25T02:22:52.623Z,99.90
2019-05-25T02:23:38.831Z,99.90
2019-05-25T02:24:24.999Z,99.90
2019-05-25T02:25:19.051Z,99.90
2019-05-25T02:25:59.407Z,99.90
2019-05-25T02:26:45.419Z,99.90
2019-05-25T02:27:31.898Z,99.90
2019-05-25T02:28:17.841Z,99.90
2019-05-25T02:29:03.974Z,99.90
2019-05-25T02:29:50.264Z,99.90
2019-05-25T02:30:36.680Z,99.90
2019-05-25T02:31:23.104Z,99.90
2019-05-25T02:32:09.097Z,99.90
2019-05-25T02:32:55.698Z,99.90
2019-05-25T02:33:41.838Z,99.90
2019-05-25T02:34:28.391Z,99.90
2019-05-25T02:35:23.525Z,99.90
2019-05-25T02:36:09.662Z,99.90
2019-05-25T02:36:55.727Z,99.90
2019-05-25T02:37:42.087Z,99.90
2019-05-25T02:38:28.094Z,99.90
2019-05-25T02:39:14.399Z,99.90
2019-05-25T02:40:00.322Z,99.90
2019-05-25T02:40:46.839Z,99.90
2019-05-25T02:41:35.251Z,99.90
2019-05-25T02:42:21.829Z,99.90
2019-05-25T02:43:09.907Z,99.90
2019-05-25T02:43:56.253Z,99.90
2019-05-25T02:44:42.405Z,99.90
2019-05-25T02:45:28.599Z,99.90
2019-05-25T02:46:15.134Z,99.90
2019-05-25T02:47:01.431Z,99.90
2019-05-25T02:47:47.818Z,99.90
2019-05-25T02:48:34.179Z,99.90
2019-05-25T02:49:20.928Z,99.90
2019-05-25T02:50:07.379Z,99.90
2019-05-25T02:50:53.475Z,99.90
2019-05-25T02:51:39.736Z,99.90
2019-05-25T02:52:25.788Z,99.90
2019-05-25T02:53:12.491Z,99.90
2019-05-25T02:53:59.374Z,99.90
2019-05-25T02:54:45.804Z,99.90
2019-05-25T02:55:34.802Z,99.90
2019-05-25T02:56:20.180Z,99.90
2019-05-25T02:57:08.164Z,99.90
2019-05-25T02:57:54.258Z,99.90
2019-05-25T02:58:40.497Z,99.90
2019-05-25T02:59:26.795Z,99.90
2019-05-25T03:00:15.544Z,99.90
2019-05-25T03:01:01.606Z,99.90
2019-05-25T03:01:49.083Z,99.90
2019-05-25T03:02:35.539Z,99.90
2019-05-25T03:03:21.999Z,99.90
2019-05-25T03:04:07.963Z,99.90
2019-05-25T03:04:54.263Z,99.90
2019-05-25T03:05:40.802Z,99.90
2019-05-25T03:06:27.931Z,99.90
2019-05-25T03:07:14.692Z,99.90
2019-05-25T03:08:01.887Z,99.90
2019-05-25T03:08:48.539Z,99.90
2019-05-25T03:09:37.413Z,99.90
2019-05-25T03:10:24.226Z,99.90
2019-05-25T03:11:10.872Z,99.90
2019-05-25T03:11:58.763Z,99.90
2019-05-25T03:12:45.159Z,99.90
2019-05-25T03:13:31.833Z,99.90
2019-05-25T03:14:17.925Z,99.90
2019-05-25T03:15:05.199Z,99.90
2019-05-25T03:15:51.586Z,99.90
2019-05-25T03:16:38.225Z,99.90
2019-05-25T03:17:24.885Z,99.90
2019-05-25T03:18:12.625Z,99.90
2019-05-25T03:18:58.882Z,99.90
2019-05-25T03:19:45.455Z,99.90
2019-05-25T03:20:31.821Z,99.90
2019-05-25T03:21:19.579Z,99.90
2019-05-25T03:22:05.972Z,99.90
2019-05-25T03:22:52.114Z,99.90
2019-05-25T03:23:38.269Z,99.90
2019-05-25T03:24:25.579Z,99.90
2019-05-25T03:25:12.215Z,99.90
2019-05-25T03:26:10.752Z,99.90
2019-05-25T03:26:56.646Z,99.90
2019-05-25T03:27:42.741Z,99.90
2019-05-25T03:28:28.942Z,99.90
2019-05-25T03:29:15.313Z,99.90
2019-05-25T03:30:01.341Z,99.90
2019-05-25T03:30:48.131Z,99.90
2019-05-25T03:31:34.419Z,99.90
2019-05-25T03:32:21.058Z,99.90
2019-05-25T03:33:07.284Z,99.90
2019-05-25T03:33:53.853Z,99.90
2019-05-25T03:34:39.940Z,99.90
2019-05-25T03:35:26.331Z,99.90
2019-05-25T03:36:12.538Z,99.90
2019-05-25T03:36:58.554Z,99.90
2019-05-25T03:37:44.623Z,99.90
2019-05-25T03:38:30.854Z,99.90
2019-05-25T03:39:18.522Z,99.90
2019-05-25T03:40:05.196Z,99.90
2019-05-25T03:40:51.596Z,99.90
2019-05-25T03:41:38.623Z,99.90
2019-05-25T03:42:24.561Z,99.90
2019-05-25T03:43:11.169Z,99.90
2019-05-25T03:43:58.953Z,99.90
2019-05-25T03:44:46.636Z,99.90
2019-05-25T03:45:39.215Z,99.90
2019-05-25T03:46:25.461Z,99.90
2019-05-25T03:47:11.474Z,99.90
2019-05-25T03:47:58.608Z,99.90
2019-05-25T03:48:44.887Z,99.90
2019-05-25T03:49:30.875Z,99.90
2019-05-25T03:50:17.571Z,99.90
2019-05-25T03:51:03.836Z,99.90
2019-05-25T03:51:49.890Z,99.90
2019-05-25T03:52:36.327Z,99.90
2019-05-25T03:53:22.745Z,99.90
2019-05-25T03:54:08.827Z,99.90
2019-05-25T03:54:54.912Z,99.90
2019-05-25T03:55:41.104Z,99.90
2019-05-25T03:56:27.702Z,99.90
2019-05-25T03:57:13.684Z,99.90
2019-05-25T03:57:59.811Z,99.90
2019-05-25T03:58:45.771Z,99.90
2019-05-25T03:59:32.217Z,99.90
2019-05-25T04:00:29.908Z,99.90
2019-05-25T04:01:16.029Z,99.90
2019-05-25T04:02:02.221Z,99.90
2019-05-25T04:02:48.430Z,99.90
2019-05-25T04:03:34.823Z,99.90
2019-05-25T04:04:20.843Z,99.90
2019-05-25T04:05:07.079Z,99.90
2019-05-25T04:05:52.979Z,99.90
2019-05-25T04:06:39.395Z,99.90
2019-05-25T04:07:25.895Z,99.90
2019-05-25T04:08:12.535Z,99.90
2019-05-25T04:09:01.443Z,99.90
2019-05-25T04:09:49.138Z,99.90
2019-05-25T04:10:38.757Z,99.90
2019-05-25T04:11:25.089Z,99.90
2019-05-25T04:12:11.400Z,99.90
2019-05-25T04:12:57.657Z,99.90
2019-05-25T04:13:44.412Z,99.90
2019-05-25T04:14:31.350Z,99.90
2019-05-25T04:15:18.749Z,99.90
2019-05-25T04:16:05.187Z,99.90
2019-05-25T04:16:51.648Z,99.90
2019-05-25T04:17:38.285Z,99.90
2019-05-25T04:18:26.810Z,99.90
2019-05-25T04:19:13.859Z,99.90
2019-05-25T04:20:02.677Z,99.90
2019-05-25T04:20:48.625Z,99.90
2019-05-25T04:21:36.141Z,99.90
2019-05-25T04:22:22.341Z,99.90
2019-05-25T04:23:10.728Z,99.90
2019-05-25T04:23:57.092Z,99.90
2019-05-25T04:24:44.394Z,99.90
2019-05-25T04:25:31.111Z,99.90
2019-05-25T04:26:22.607Z,99.90
2019-05-25T04:27:06.065Z,99.90
2019-05-25T04:27:52.365Z,99.90
2019-05-25T04:28:41.674Z,99.90
2019-05-25T04:29:30.542Z,99.90
2019-05-25T04:30:18.012Z,99.90
2019-05-25T04:31:05.418Z,99.90
2019-05-25T04:31:51.995Z,99.90
2019-05-25T04:32:38.239Z,99.90
2019-05-25T04:33:24.807Z,99.90
2019-05-25T04:34:11.524Z,99.90
2019-05-25T04:34:59.916Z,99.90
2019-05-25T04:35:46.723Z,99.90
2019-05-25T04:36:33.080Z,99.90
2019-05-25T04:37:19.337Z,99.90
2019-05-25T04:38:05.968Z,99.90
2019-05-25T04:38:53.198Z,99.90
2019-05-25T04:39:39.664Z,99.90
2019-05-25T04:40:28.847Z,99.90
2019-05-25T04:41:18.231Z,99.90
2019-05-25T04:42:04.371Z,99.90
2019-05-25T04:42:50.920Z,99.90
2019-05-25T04:43:37.067Z,99.90
2019-05-25T04:44:23.500Z,99.90
2019-05-25T04:45:10.203Z,99.90
2019-05-25T04:45:56.787Z,99.90
2019-05-25T04:46:43.100Z,99.90
2019-05-25T04:47:29.643Z,99.90
2019-05-25T04:48:16.097Z,99.90
2019-05-25T04:49:02.716Z,99.90
2019-05-25T04:49:49.374Z,99.90
2019-05-25T04:50:35.468Z,99.90
2019-05-25T04:51:22.570Z,99.90
2019-05-25T04:52:09.935Z,99.90
2019-05-25T04:52:56.271Z,99.90
2019-05-25T04:53:42.819Z,99.90
2019-05-25T04:54:29.130Z,99.90
2019-05-25T04:55:21.828Z,99.90
2019-05-25T04:56:08.312Z,99.90
2019-05-25T04:56:54.745Z,99.90
2019-05-25T04:57:40.803Z,99.90
2019-05-25T04:58:26.919Z,99.90
2019-05-25T04:59:13.707Z,99.90
2019-05-25T05:00:00.017Z,99.90
2019-05-25T05:00:46.141Z,99.90
2019-05-25T05:01:36.295Z,99.90
2019-05-25T05:02:22.395Z,99.90
2019-05-25T05:03:08.636Z,99.90
2019-05-25T05:03:54.848Z,99.90
2019-05-25T05:04:40.949Z,99.90
2019-05-25T05:05:29.381Z,99.90
2019-05-25T05:06:15.482Z,99.90
2019-05-25T05:07:02.126Z,99.90
2019-05-25T05:07:48.675Z,99.90
2019-05-25T05:08:35.712Z,99.90
2019-05-25T05:09:22.073Z,99.90
2019-05-25T05:10:08.674Z,99.90
2019-05-25T05:10:54.849Z,99.90
2019-05-25T05:11:40.997Z,99.90
2019-05-25T05:12:28.048Z,99.90
2019-05-25T05:13:14.223Z,99.90
2019-05-25T05:14:00.632Z,99.90
2019-05-25T05:14:47.029Z,99.90
2019-05-25T05:15:33.044Z,99.90
2019-05-25T05:16:19.495Z,99.90
2019-05-25T05:17:06.167Z,99.90
2019-05-25T05:17:53.235Z,99.90
2019-05-25T05:18:39.547Z,99.90
2019-05-25T05:19:25.922Z,99.90
2019-05-25T05:20:12.242Z,99.90
2019-05-25T05:20:58.293Z,99.90
2019-05-25T05:21:44.488Z,99.90
2019-05-25T05:22:30.650Z,99.90
2019-05-25T05:23:16.307Z,99.90
2019-05-25T05:24:01.997Z,99.90
2019-05-25T05:24:47.785Z,99.90
2019-05-25T05:25:33.588Z,99.90
2019-05-25T05:26:19.409Z,99.90
2019-05-25T05:27:05.395Z,99.90
2019-05-25T05:27:51.516Z,99.90
2019-05-25T05:28:38.098Z,99.90
2019-05-25T05:29:24.285Z,99.90
2019-05-25T05:30:10.923Z,99.90
2019-05-25T05:30:56.921Z,99.90
2019-05-25T05:31:43.218Z,99.90
2019-05-25T05:32:31.137Z,99.90
2019-05-25T05:33:17.181Z,99.90
2019-05-25T05:34:04.534Z,99.90
2019-05-25T05:34:53.066Z,99.90
2019-05-25T05:35:39.412Z,99.90
2019-05-25T05:36:27.161Z,99.90
2019-05-25T05:37:13.350Z,99.90
2019-05-25T05:38:02.335Z,99.90
2019-05-25T05:38:49.338Z,99.90
2019-05-25T05:39:37.408Z,99.90
2019-05-25T05:40:23.588Z,99.90
2019-05-25T05:41:10.903Z,99.90
2019-05-25T05:41:59.562Z,99.90
2019-05-25T05:42:48.473Z,99.90
2019-05-25T05:43:37.038Z,99.90
2019-05-25T05:44:25.653Z,99.90
2019-05-25T05:45:11.778Z,99.90
2019-05-25T05:45:59.475Z,99.90
2019-05-25T05:46:48.082Z,99.90
2019-05-25T05:47:35.480Z,99.90
2019-05-25T05:48:24.955Z,99.90
2019-05-25T05:49:11.353Z,99.90
2019-05-25T05:50:00.418Z,99.90
2019-05-25T05:50:48.181Z,99.90
2019-05-25T05:51:35.062Z,99.90
2019-05-25T05:52:23.604Z,99.90
2019-05-25T05:53:09.846Z,99.90
2019-05-25T05:53:56.275Z,99.90
2019-05-25T05:54:44.939Z,99.90
2019-05-25T05:55:31.550Z,99.90
2019-05-25T05:56:17.427Z,99.90
2019-05-25T05:57:12.163Z,99.90
2019-05-25T05:57:51.058Z,99.90
2019-05-25T05:58:37.125Z,99.90
2019-05-25T05:59:23.029Z,99.90
2019-05-25T06:00:12.103Z,99.90
2019-05-25T06:00:58.045Z,99.90
2019-05-25T06:01:43.807Z,99.90
2019-05-25T06:02:30.264Z,99.90
2019-05-25T06:03:16.744Z,99.90
2019-05-25T06:04:03.456Z,99.90
2019-05-25T06:04:50.321Z,99.90
2019-05-25T06:05:36.711Z,99.90
2019-05-25T06:06:23.154Z,99.90
2019-05-25T06:07:47.137Z,99.90
2019-05-25T06:08:33.100Z,99.90
2019-05-25T06:09:19.089Z,99.90
2019-05-25T06:10:07.101Z,99.90
2019-05-25T06:10:52.847Z,99.90
2019-05-25T06:11:39.309Z,99.90
2019-05-25T06:12:26.345Z,99.90
2019-05-25T06:13:12.504Z,99.90
2019-05-25T06:13:58.659Z,99.90
2019-05-25T06:14:44.686Z,99.90
2019-05-25T06:15:30.611Z,99.90
2019-05-25T06:16:19.628Z,99.90
2019-05-25T06:17:05.580Z,99.90
2019-05-25T06:17:51.602Z,99.90
2019-05-25T06:18:38.155Z,99.90
2019-05-25T06:19:24.279Z,99.90
2019-05-25T06:20:10.772Z,99.90
2019-05-25T06:20:56.834Z,99.90
2019-05-25T06:21:45.655Z,99.90
2019-05-25T06:22:31.911Z,99.90
2019-05-25T06:23:17.788Z,99.90
2019-05-25T06:24:04.175Z,99.90
2019-05-25T06:24:50.648Z,99.90
2019-05-25T06:25:37.299Z,99.90
2019-05-25T06:26:23.980Z,99.90
2019-05-25T06:27:18.902Z,99.90
2019-05-25T06:27:59.876Z,99.90
2019-05-25T06:28:45.962Z,99.90
2019-05-25T06:29:35.754Z,99.90
2019-05-25T06:30:22.204Z,99.90
2019-05-25T06:31:09.257Z,99.90
2019-05-25T06:32:05.614Z,99.90
2019-05-25T06:32:52.100Z,99.90
2019-05-25T06:33:38.732Z,99.90
2019-05-25T06:34:25.773Z,99.90
2019-05-25T06:35:12.691Z,99.90
2019-05-25T06:36:00.234Z,99.90
2019-05-25T06:36:46.463Z,99.90
2019-05-25T06:37:32.630Z,99.90
2019-05-25T06:38:18.980Z,99.90
2019-05-25T06:39:06.688Z,99.90
2019-05-25T06:39:52.995Z,99.90
2019-05-25T06:40:41.196Z,99.90
2019-05-25T06:41:31.079Z,99.90
2019-05-25T06:42:17.412Z,99.90
2019-05-25T06:43:03.398Z,99.90
2019-05-25T06:43:49.626Z,99.90
2019-05-25T06:44:35.588Z,99.90
2019-05-25T06:45:25.752Z,99.90
2019-05-25T06:46:12.110Z,99.90
2019-05-25T06:46:58.298Z,99.90
2019-05-25T06:47:48.438Z,99.90
2019-05-25T06:48:34.590Z,99.90
2019-05-25T06:49:20.835Z,99.90
2019-05-25T06:50:11.876Z,99.90
2019-05-25T06:50:57.597Z,99.90
2019-05-25T06:51:44.094Z,99.90
2019-05-25T06:52:30.356Z,99.90
2019-05-25T06:53:25.872Z,99.90
2019-05-25T06:54:12.776Z,99.90
2019-05-25T06:55:11.731Z,99.90
2019-05-25T06:55:58.060Z,99.90
2019-05-25T06:56:44.352Z,99.90
2019-05-25T06:57:42.608Z,99.90
2019-05-25T06:58:20.877Z,99.90
2019-05-25T06:59:07.195Z,99.90
2019-05-25T06:59:53.279Z,99.90
2019-05-25T07:00:39.383Z,99.90
2019-05-25T07:01:30.796Z,99.90
2019-05-25T07:02:17.893Z,99.90
2019-05-25T07:03:04.060Z,99.90
2019-05-25T07:03:50.024Z,99.90
2019-05-25T07:04:36.016Z,99.90
2019-05-25T07:05:23.251Z,99.90
2019-05-25T07:06:09.714Z,99.90
2019-05-25T07:06:56.964Z,99.90
2019-05-25T07:07:47.288Z,99.90
2019-05-25T07:08:34.249Z,99.90
2019-05-25T07:09:20.688Z,99.90
2019-05-25T07:10:10.201Z,99.90
2019-05-25T07:10:56.903Z,99.90
2019-05-25T07:11:42.959Z,99.90
2019-05-25T07:12:30.009Z,99.90
2019-05-25T07:13:16.295Z,99.90
2019-05-25T07:14:02.262Z,99.90
2019-05-25T07:14:48.546Z,99.90
2019-05-25T07:15:34.821Z,99.90
2019-05-25T07:16:20.619Z,99.90
2019-05-25T07:17:06.833Z,99.90
2019-05-25T07:17:53.400Z,99.90
2019-05-25T07:18:39.852Z,99.90
2019-05-25T07:19:26.650Z,99.90
2019-05-25T07:20:13.053Z,99.90
2019-05-25T07:20:59.512Z,99.90
2019-05-25T07:21:46.069Z,99.90
2019-05-25T07:22:32.516Z,99.90
2019-05-25T07:23:18.983Z,99.90
2019-05-25T07:24:06.083Z,99.90
2019-05-25T07:24:52.449Z,99.90
2019-05-25T07:25:38.419Z,99.90
2019-05-25T07:26:24.891Z,99.90
2019-05-25T07:27:11.506Z,99.90
2019-05-25T07:28:01.608Z,99.90
2019-05-25T07:28:50.826Z,99.90
2019-05-25T07:29:36.884Z,99.90
2019-05-25T07:30:23.819Z,99.90
2019-05-25T07:31:11.932Z,99.90
2019-05-25T07:31:57.923Z,99.90
2019-05-25T07:32:44.545Z,99.90
2019-05-25T07:33:31.403Z,99.90
2019-05-25T07:34:18.526Z,99.90
2019-05-25T07:35:04.773Z,99.90
2019-05-25T07:35:51.364Z,99.90
2019-05-25T07:36:38.204Z,99.90
2019-05-25T07:37:24.632Z,99.90
2019-05-25T07:38:10.777Z,99.90
2019-05-25T07:38:56.650Z,99.90
2019-05-25T07:39:42.896Z,99.90
2019-05-25T07:40:29.119Z,99.90
2019-05-25T07:41:18.218Z,99.90
2019-05-25T07:42:04.776Z,99.90
2019-05-25T07:43:07.386Z,99.90
2019-05-25T07:43:53.371Z,99.90
2019-05-25T07:44:42.403Z,99.90
2019-05-25T07:45:28.379Z,99.90
2019-05-25T07:46:17.084Z,99.90
2019-05-25T07:47:05.481Z,99.90
2019-05-25T07:47:53.409Z,99.90
2019-05-25T07:48:40.844Z,99.90
2019-05-25T07:49:27.715Z,99.90
2019-05-25T07:50:18.070Z,99.90
2019-05-25T07:51:10.102Z,99.90
2019-05-25T07:52:04.035Z,99.90
2019-05-25T07:52:51.515Z,99.90
2019-05-25T07:53:40.106Z,99.90
2019-05-25T07:54:31.401Z,99.90
2019-05-25T07:55:17.726Z,99.90
2019-05-25T07:56:03.929Z,99.90
2019-05-25T07:56:50.004Z,99.90
2019-05-25T07:57:36.289Z,99.90
2019-05-25T07:58:23.062Z,99.90
2019-05-25T07:59:12.553Z,99.90
2019-05-25T07:59:59.382Z,99.90
2019-05-25T08:00:54.447Z,99.90
2019-05-25T08:01:44.226Z,99.90
2019-05-25T08:02:31.665Z,99.90
2019-05-25T08:03:25.453Z,99.90
2019-05-25T08:04:11.673Z,99.90
2019-05-25T08:04:58.000Z,99.90
2019-05-25T08:05:47.575Z,99.90
2019-05-25T08:06:36.923Z,99.90
2019-05-25T08:07:23.811Z,99.90
2019-05-25T08:08:13.333Z,99.90
2019-05-25T08:09:05.985Z,99.90
2019-05-25T08:09:54.723Z,99.90
2019-05-25T08:10:46.201Z,99.90
2019-05-25T08:11:35.925Z,99.90
2019-05-25T08:12:27.413Z,99.90
2019-05-25T08:13:13.515Z,99.90
2019-05-25T08:14:04.989Z,99.90
2019-05-25T08:14:51.062Z,99.90
2019-05-25T08:15:36.807Z,99.90
2019-05-25T08:16:22.835Z,99.90
2019-05-25T08:17:08.964Z,99.90
2019-05-25T08:17:55.523Z,99.90
2019-05-25T08:18:45.995Z,99.90
2019-05-25T08:19:32.276Z,99.90
2019-05-25T08:20:18.163Z,99.90
2019-05-25T08:21:04.278Z,99.90
2019-05-25T08:21:50.575Z,99.90
2019-05-25T08:22:37.100Z,99.90
2019-05-25T08:23:23.769Z,99.90
2019-05-25T08:24:10.455Z,99.90
2019-05-25T08:24:57.378Z,99.90
2019-05-25T08:25:44.345Z,99.90
2019-05-25T08:26:30.935Z,99.90
2019-05-25T08:27:18.063Z,99.90
2019-05-25T08:28:05.022Z,99.90
2019-05-25T08:28:55.895Z,99.90
2019-05-25T08:29:44.376Z,99.90
2019-05-25T08:30:33.263Z,99.90
2019-05-25T08:31:21.479Z,99.90
2019-05-25T08:32:07.748Z,99.90
2019-05-25T08:32:53.870Z,99.90
2019-05-25T08:33:43.133Z,99.90
2019-05-25T08:34:31.669Z,99.90
2019-05-25T08:35:18.720Z,99.90
2019-05-25T08:36:05.495Z,99.90
2019-05-25T08:36:52.623Z,99.90
2019-05-25T08:37:39.432Z,99.90
2019-05-25T08:38:28.457Z,99.90
2019-05-25T08:39:16.807Z,99.90
2019-05-25T08:40:04.309Z,99.90
2019-05-25T08:40:54.775Z,99.90
2019-05-25T08:41:41.022Z,99.90
2019-05-25T08:42:27.038Z,99.90
2019-05-25T08:43:13.686Z,99.90
2019-05-25T08:44:04.388Z,99.90
2019-05-25T08:44:50.053Z,99.90
2019-05-25T08:45:36.443Z,99.90
2019-05-25T08:46:22.990Z,99.90
2019-05-25T08:47:08.864Z,99.90
2019-05-25T08:48:01.555Z,99.90
2019-05-25T08:48:48.770Z,99.90
2019-05-25T08:49:35.812Z,99.90
2019-05-25T08:50:35.393Z,99.90
2019-05-25T08:51:11.139Z,99.90
2019-05-25T08:51:57.372Z,99.90
2019-05-25T08:52:45.790Z,99.90
2019-05-25T08:53:41.100Z,99.90
2019-05-25T08:54:20.364Z,99.90
2019-05-25T08:55:07.980Z,99.90
2019-05-25T08:55:53.974Z,99.90
2019-05-25T08:56:39.926Z,99.90
2019-05-25T08:57:26.080Z,99.90
2019-05-25T08:58:13.834Z,99.90
2019-05-25T08:59:04.190Z,99.90
2019-05-25T08:59:50.134Z,99.90
2019-05-25T09:00:47.435Z,99.90
2019-05-25T09:01:34.452Z,99.90
2019-05-25T09:02:21.556Z,99.90
2019-05-25T09:03:08.008Z,99.90
2019-05-25T09:03:53.935Z,99.90
2019-05-25T09:04:40.172Z,99.90
2019-05-25T09:05:30.182Z,99.90
2019-05-25T09:06:17.686Z,99.90
2019-05-25T09:07:04.027Z,99.90
2019-05-25T09:07:49.865Z,99.90
2019-05-25T09:08:36.100Z,99.90
2019-05-25T09:09:22.508Z,99.90
2019-05-25T09:10:09.790Z,99.90
2019-05-25T09:10:56.167Z,99.90
2019-05-25T09:11:42.576Z,99.90
2019-05-25T09:12:29.044Z,99.90
2019-05-25T09:13:15.484Z,99.90
2019-05-25T09:14:01.775Z,99.90
2019-05-25T09:14:47.833Z,99.90
2019-05-25T09:15:35.355Z,95.30
2019-05-25T09:16:21.658Z,94.70
2019-05-25T09:17:07.918Z,91.90
2019-05-25T09:17:54.023Z,91.40
2019-05-25T09:18:40.079Z,89.50
2019-05-25T09:19:26.328Z,81.20
2019-05-25T09:20:12.878Z,78.50
2019-05-25T09:21:01.876Z,78.50
2019-05-25T09:22:01.469Z,73.80
2019-05-25T09:22:35.784Z,72.70
2019-05-25T09:23:21.823Z,70.20
2019-05-25T09:24:07.961Z,66.60
2019-05-25T09:24:53.596Z,68.10
2019-05-25T09:25:39.483Z,66.30
2019-05-25T09:26:25.489Z,64.00
2019-05-25T09:27:11.150Z,62.40
2019-05-25T09:27:56.863Z,61.90
2019-05-25T09:28:42.659Z,60.00
2019-05-25T09:29:28.969Z,61.20
2019-05-25T09:30:14.961Z,59.90
2019-05-25T09:31:01.477Z,60.20
2019-05-25T09:31:48.253Z,59.50
2019-05-25T09:32:34.576Z,63.90
2019-05-25T09:33:23.520Z,64.40
2019-05-25T09:34:09.555Z,64.20
2019-05-25T09:34:55.596Z,62.90
2019-05-25T09:35:41.790Z,65.30
2019-05-25T09:36:27.925Z,67.10
2019-05-25T09:37:14.100Z,64.60
2019-05-25T09:38:00.200Z,65.70
2019-05-25T09:38:46.948Z,66.80
2019-05-25T09:39:33.032Z,67.70
2019-05-25T09:40:19.072Z,70.20
2019-05-25T09:41:05.170Z,66.10
2019-05-25T09:41:51.000Z,67.20
2019-05-25T09:42:38.421Z,68.10
2019-05-25T09:43:25.060Z,69.10
2019-05-25T09:44:11.100Z,71.30
2019-05-25T09:44:57.623Z,72.10
2019-05-25T09:45:49.532Z,72.90
2019-05-25T09:46:35.895Z,72.00
2019-05-25T09:47:26.777Z,70.60
2019-05-25T09:48:14.733Z,70.70
2019-05-25T09:49:01.450Z,70.20
2019-05-25T09:49:50.960Z,71.60
2019-05-25T09:50:38.006Z,68.10
2019-05-25T09:51:24.719Z,69.40
2019-05-25T09:52:10.921Z,67.70
2019-05-25T09:52:58.823Z,68.50
2019-05-25T09:53:44.900Z,73.00
2019-05-25T09:54:31.453Z,72.10
2019-05-25T09:55:18.188Z,68.90
2019-05-25T09:56:08.541Z,69.30
2019-05-25T09:56:55.598Z,72.30
2019-05-25T09:57:42.090Z,76.00
2019-05-25T09:58:30.542Z,79.80
2019-05-25T09:59:20.124Z,82.50
2019-05-25T10:00:09.145Z,85.20
2019-05-25T10:00:58.172Z,92.90
2019-05-25T10:01:44.836Z,94.60
2019-05-25T10:02:31.531Z,89.40
2019-05-25T10:03:22.357Z,85.20
2019-05-25T10:04:08.864Z,78.80
2019-05-25T10:04:54.887Z,76.90